createdAt,value
2023-02-11T00:00:14.900Z,-1.06
2023-02-11T00:05:38.403Z,-0.93
2023-02-11T00:10:42.179Z,-0.70
2023-02-11T00:15:45.553Z,-0.69
2023-02-11T00:20:51.422Z,-0.61
2023-02-11T00:26:13.282Z,-0.62
2023-02-11T00:31:23.702Z,-0.70
2023-02-11T00:36:29.275Z,-0.70
2023-02-11T00:41:33.181Z,-0.80
2023-02-11T00:46:40.666Z,-0.72
2023-02-11T00:51:46.982Z,-0.66
2023-02-11T00:56:54.994Z,-0.73
2023-02-11T01:02:01.254Z,-0.60
2023-02-11T01:07:14.011Z,-0.63
2023-02-11T01:12:20.306Z,-0.84
2023-02-11T01:17:39.401Z,-0.75
2023-02-11T01:22:51.963Z,-0.88
2023-02-11T01:27:55.333Z,-0.85
2023-02-11T01:32:59.414Z,-1.07
2023-02-11T01:38:08.705Z,-1.14
2023-02-11T01:43:20.202Z,-1.38
2023-02-11T01:48:42.915Z,-1.18
2023-02-11T01:54:05.571Z,-1.08
2023-02-11T01:59:18.052Z,-1.11
2023-02-11T02:04:23.412Z,-1.20
2023-02-11T02:09:35.300Z,-1.04
2023-02-11T02:14:41.682Z,-1.06
2023-02-11T02:20:17.557Z,-1.09
2023-02-11T02:25:59.477Z,-1.19
2023-02-11T02:31:18.679Z,-1.01
2023-02-11T02:36:35.063Z,-0.82
2023-02-11T02:41:39.494Z,-0.85
2023-02-11T02:46:42.803Z,-0.69
2023-02-11T02:51:53.182Z,-0.64
2023-02-11T02:57:48.551Z,-0.66
2023-02-11T03:03:16.730Z,-0.74
2023-02-11T03:08:26.361Z,-0.72
2023-02-11T03:13:33.826Z,-0.74
2023-02-11T03:18:41.095Z,-0.75
2023-02-11T03:23:50.903Z,-0.87
2023-02-11T03:29:16.115Z,-0.60
2023-02-11T03:34:23.993Z,-0.58
2023-02-11T03:39:36.969Z,-0.46
2023-02-11T03:44:48.821Z,-0.43
2023-02-11T03:49:55.068Z,-0.46
2023-02-11T03:55:00.824Z,-0.52
2023-02-11T04:00:04.847Z,-0.47
2023-02-11T04:05:16.472Z,-0.46
2023-02-11T04:10:20.075Z,-0.45
2023-02-11T04:15:24.037Z,-0.40
2023-02-11T04:20:27.598Z,-0.34
2023-02-11T04:25:31.771Z,-0.24
2023-02-11T04:30:35.134Z,-0.13
2023-02-11T04:35:41.533Z,-0.12
2023-02-11T04:40:45.660Z,-0.07
2023-02-11T04:45:49.560Z,0.13
2023-02-11T04:50:53.587Z,0.17
2023-02-11T04:55:57.281Z,0.22
2023-02-11T05:01:10.196Z,0.37
2023-02-11T05:06:13.693Z,0.35
2023-02-11T05:11:22.186Z,0.21
2023-02-11T05:16:37.113Z,0.32
2023-02-11T05:21:50.352Z,0.59
2023-02-11T05:27:00.469Z,0.59
2023-02-11T05:32:04.279Z,0.57
2023-02-11T05:37:15.852Z,0.68
2023-02-11T05:42:33.743Z,0.81
2023-02-11T05:47:39.464Z,0.87
2023-02-11T05:52:43.922Z,1.03
2023-02-11T05:57:47.489Z,1.02
2023-02-11T06:02:55.050Z,0.92
2023-02-11T06:07:59.053Z,1.02
2023-02-11T06:13:02.470Z,0.80
2023-02-11T06:18:06.306Z,0.52
2023-02-11T06:23:10.340Z,0.57
2023-02-11T06:28:13.865Z,0.60
2023-02-11T06:33:18.200Z,0.49
2023-02-11T06:38:21.753Z,0.37
2023-02-11T06:43:25.305Z,0.37
2023-02-11T06:48:28.605Z,0.29
2023-02-11T06:53:35.666Z,0.42
2023-02-11T06:58:39.078Z,0.68
2023-02-11T07:03:46.006Z,0.92
2023-02-11T07:08:52.075Z,1.02
2023-02-11T07:14:00.735Z,1.06
2023-02-11T07:19:04.151Z,1.34
2023-02-11T07:24:11.171Z,1.68
2023-02-11T07:29:16.538Z,1.92
2023-02-11T07:34:39.955Z,1.85
2023-02-11T07:39:43.881Z,1.88
2023-02-11T07:44:50.278Z,2.04
2023-02-11T07:49:56.466Z,2.00
2023-02-11T07:55:04.868Z,1.86
2023-02-11T08:00:11.333Z,2.20
2023-02-11T08:05:15.074Z,2.43
2023-02-11T08:10:24.312Z,2.63
2023-02-11T08:15:47.104Z,3.10
2023-02-11T08:20:50.832Z,3.27
2023-02-11T08:26:03.861Z,3.54
2023-02-11T08:31:15.113Z,3.78
2023-02-11T08:36:27.346Z,4.30
2023-02-11T08:41:32.100Z,5.13
2023-02-11T08:46:38.684Z,5.54
2023-02-11T08:51:57.444Z,5.35
2023-02-11T08:57:56.663Z,5.75
2023-02-11T09:03:05.695Z,6.10
2023-02-11T09:08:12.950Z,6.38
2023-02-11T09:14:10.027Z,6.70
2023-02-11T09:20:14.038Z,7.58
2023-02-11T09:25:52.031Z,7.68
2023-02-11T09:32:16.583Z,7.10
2023-02-11T09:37:40.761Z,6.39
2023-02-11T09:43:48.562Z,5.47
2023-02-11T09:49:28.416Z,4.81
2023-02-11T09:54:56.605Z,4.61
2023-02-11T10:00:37.438Z,4.64
2023-02-11T10:06:26.471Z,4.73
2023-02-11T10:12:16.836Z,4.74
2023-02-11T10:18:13.541Z,4.98
2023-02-11T10:23:34.950Z,5.26
2023-02-11T10:28:47.844Z,5.12
2023-02-11T10:34:42.257Z,4.94
2023-02-11T10:39:48.579Z,4.61
2023-02-11T10:45:03.113Z,4.45
2023-02-11T10:50:33.562Z,4.41
2023-02-11T10:55:38.211Z,4.55
2023-02-11T11:01:24.235Z,4.81
2023-02-11T11:06:56.759Z,5.25
2023-02-11T11:12:00.454Z,5.49
2023-02-11T11:17:18.384Z,5.70
2023-02-11T11:22:46.484Z,5.49
2023-02-11T11:27:56.845Z,5.41
2023-02-11T11:33:04.611Z,5.53
2023-02-11T11:38:14.511Z,5.50
2023-02-11T11:43:23.278Z,5.62
2023-02-11T11:48:38.860Z,5.91
2023-02-11T11:54:08.974Z,5.86
2023-02-11T11:59:17.144Z,5.86
2023-02-11T12:04:26.692Z,5.63
2023-02-11T12:09:40.415Z,5.55
2023-02-11T12:15:16.983Z,5.59
2023-02-11T12:20:30.351Z,5.63
2023-02-11T12:26:11.428Z,5.48
2023-02-11T12:31:49.833Z,5.33
2023-02-11T12:37:16.138Z,5.18
2023-02-11T12:42:40.975Z,5.28
2023-02-11T12:47:57.580Z,5.10
2023-02-11T12:53:58.193Z,4.91
2023-02-11T12:59:14.237Z,4.76
2023-02-11T13:04:39.554Z,4.69
2023-02-11T13:09:55.595Z,4.74
2023-02-11T13:15:13.765Z,4.53
2023-02-11T13:20:52.122Z,4.66
2023-02-11T13:26:21.680Z,4.67
2023-02-11T13:31:27.670Z,4.72
2023-02-11T13:36:33.467Z,4.60
2023-02-11T13:41:41.404Z,4.48
2023-02-11T13:46:59.837Z,4.47
2023-02-11T13:52:19.364Z,4.58
2023-02-11T13:57:35.724Z,4.47
2023-02-11T14:03:00.272Z,4.40
2023-02-11T14:08:28.873Z,4.56
2023-02-11T14:13:37.136Z,4.66
2023-02-11T14:18:55.953Z,4.67
2023-02-11T14:24:39.861Z,4.59
2023-02-11T14:30:20.124Z,4.33
2023-02-11T14:36:10.374Z,4.45
2023-02-11T14:41:54.253Z,4.44
2023-02-11T14:47:21.420Z,4.46
2023-02-11T14:52:33.073Z,4.31
2023-02-11T14:57:38.029Z,4.30
2023-02-11T15:02:43.886Z,4.18
2023-02-11T15:07:54.390Z,4.06
2023-02-11T15:12:59.071Z,3.88
2023-02-11T15:18:22.954Z,3.77
2023-02-11T15:23:28.285Z,3.65
2023-02-11T15:28:34.626Z,3.49
2023-02-11T15:33:38.135Z,3.46
2023-02-11T15:38:41.789Z,3.34
2023-02-11T15:43:49.008Z,3.26
2023-02-11T15:48:53.926Z,3.09
2023-02-11T15:54:09.900Z,2.71
2023-02-11T15:59:30.753Z,2.54
2023-02-11T16:04:34.285Z,2.48
2023-02-11T16:09:37.849Z,2.41
2023-02-11T16:14:41.136Z,2.29
2023-02-11T16:19:48.243Z,2.21
2023-02-11T16:24:53.667Z,2.40
2023-02-11T16:29:57.982Z,2.24
2023-02-11T16:35:02.024Z,2.30
2023-02-11T16:40:06.098Z,2.33
2023-02-11T16:45:10.143Z,2.42
2023-02-11T16:50:22.252Z,2.48
2023-02-11T16:55:25.792Z,2.55
2023-02-11T17:00:29.449Z,2.56
2023-02-11T17:05:42.770Z,2.55
2023-02-11T17:10:53.233Z,2.58
2023-02-11T17:16:09.400Z,2.55
2023-02-11T17:21:13.044Z,2.58
2023-02-11T17:26:16.595Z,2.51
2023-02-11T17:31:20.002Z,2.53
2023-02-11T17:36:24.774Z,2.58
2023-02-11T17:41:36.407Z,2.57
2023-02-11T17:46:39.816Z,2.53
2023-02-11T17:51:46.528Z,2.64
2023-02-11T17:56:50.967Z,2.68
2023-02-11T18:01:56.702Z,2.63
2023-02-11T18:07:00.160Z,2.55
2023-02-11T18:12:04.273Z,2.50
2023-02-11T18:17:07.972Z,2.56
2023-02-11T18:22:14.601Z,2.62
2023-02-11T18:27:18.162Z,2.61
2023-02-11T18:32:21.522Z,2.63
2023-02-11T18:37:38.837Z,2.74
2023-02-11T18:42:51.913Z,2.77
2023-02-11T18:47:55.915Z,2.74
2023-02-11T18:52:59.489Z,2.70
2023-02-11T18:58:03.161Z,2.74
2023-02-11T19:03:09.570Z,2.80
2023-02-11T19:08:15.567Z,2.78
2023-02-11T19:13:19.121Z,2.76
2023-02-11T19:18:22.928Z,2.73
2023-02-11T19:23:26.530Z,2.77
2023-02-11T19:28:30.959Z,2.83
2023-02-11T19:33:42.273Z,2.83
2023-02-11T19:38:45.809Z,2.86
2023-02-11T19:43:56.845Z,2.93
2023-02-11T19:49:03.417Z,2.98
2023-02-11T19:54:07.604Z,2.97
2023-02-11T19:59:11.181Z,2.93
2023-02-11T20:04:15.553Z,2.96
2023-02-11T20:09:22.883Z,2.86
2023-02-11T20:14:28.026Z,2.98
2023-02-11T20:19:31.956Z,2.95
2023-02-11T20:24:35.700Z,3.01
2023-02-11T20:29:42.096Z,3.11
2023-02-11T20:34:45.592Z,3.06
2023-02-11T20:39:52.081Z,3.12
2023-02-11T20:44:55.520Z,3.07
2023-02-11T20:49:59.205Z,3.02
2023-02-11T20:55:09.061Z,3.03
2023-02-11T21:00:13.554Z,3.14
2023-02-11T21:05:17.217Z,3.20
2023-02-11T21:10:20.692Z,3.09
2023-02-11T21:15:24.453Z,3.09
2023-02-11T21:20:28.856Z,3.18
2023-02-11T21:25:35.611Z,3.15
2023-02-11T21:30:42.065Z,3.15
2023-02-11T21:35:45.747Z,3.08
2023-02-11T21:40:59.110Z,3.16
2023-02-11T21:46:09.828Z,3.15
2023-02-11T21:51:15.905Z,3.21
2023-02-11T21:56:19.626Z,3.28
2023-02-11T22:01:58.913Z,3.28
2023-02-11T22:07:03.508Z,3.20
2023-02-11T22:12:09.006Z,3.18
2023-02-11T22:17:15.479Z,3.11
2023-02-11T22:22:19.867Z,3.11
2023-02-11T22:27:23.525Z,3.19
2023-02-11T22:32:27.213Z,3.28
2023-02-11T22:37:31.158Z,3.18
2023-02-11T22:42:45.459Z,3.23
2023-02-11T22:47:55.314Z,3.17
2023-02-11T22:53:01.877Z,3.23
2023-02-11T22:58:11.010Z,3.31
2023-02-11T23:03:22.053Z,3.33
2023-02-11T23:08:26.189Z,3.30
2023-02-11T23:13:51.912Z,3.28
2023-02-11T23:18:59.163Z,3.41
2023-02-11T23:24:09.518Z,3.42
2023-02-11T23:29:41.842Z,3.38
2023-02-11T23:34:45.350Z,3.38
2023-02-11T23:39:48.983Z,3.32
2023-02-11T23:44:53.821Z,3.29
2023-02-11T23:50:04.815Z,3.24
2023-02-11T23:55:09.254Z,3.30
